createdAt,value
2024-01-14T00:01:24.213Z,98179.31
2024-01-14T00:03:51.737Z,98180.13
2024-01-14T00:06:19.158Z,98174.53
2024-01-14T00:08:45.892Z,98172.53
2024-01-14T00:11:12.747Z,98169.91
2024-01-14T00:13:39.603Z,98174.72
2024-01-14T00:16:06.519Z,98163.03
2024-01-14T00:18:33.493Z,98142.00
2024-01-14T00:21:00.392Z,98142.50
2024-01-14T00:23:27.258Z,98147.59
2024-01-14T00:25:54.149Z,98139.94
2024-01-14T00:28:21.033Z,98137.16
2024-01-14T00:30:48.033Z,98141.84
2024-01-14T00:33:14.961Z,98140.69
2024-01-14T00:35:44.947Z,98129.19
2024-01-14T00:38:14.895Z,98147.78
2024-01-14T00:40:42.166Z,98153.94
2024-01-14T00:43:09.204Z,98129.84
2024-01-14T00:45:36.105Z,98139.91
2024-01-14T00:48:03.449Z,98147.09
2024-01-14T00:50:31.756Z,98144.44
2024-01-14T00:52:58.697Z,98142.19
2024-01-14T00:55:25.481Z,98139.25
2024-01-14T00:57:52.276Z,98147.09
2024-01-14T01:00:19.549Z,98138.78
2024-01-14T01:02:46.536Z,98152.97
2024-01-14T01:05:13.431Z,98141.75
2024-01-14T01:07:40.463Z,98134.81
2024-01-14T01:10:07.645Z,98135.06
2024-01-14T01:12:35.130Z,98139.81
2024-01-14T01:15:02.063Z,98146.38
2024-01-14T01:17:28.904Z,98151.16
2024-01-14T01:19:55.723Z,98142.72
2024-01-14T01:22:22.655Z,98135.94
2024-01-14T01:24:49.399Z,98129.91
2024-01-14T01:27:16.498Z,98149.38
2024-01-14T01:29:43.881Z,98145.06
2024-01-14T01:32:11.217Z,98136.69
2024-01-14T01:34:38.681Z,98138.00
2024-01-14T01:37:05.987Z,98130.97
2024-01-14T01:39:33.169Z,98148.41
2024-01-14T01:42:00.539Z,98146.47
2024-01-14T01:44:27.473Z,98154.63
2024-01-14T01:46:56.077Z,98150.13
2024-01-14T01:49:24.243Z,98145.72
2024-01-14T01:51:51.931Z,98117.41
2024-01-14T01:54:21.838Z,98130.66
2024-01-14T01:56:49.932Z,98119.53
2024-01-14T01:59:16.787Z,98130.47
2024-01-14T02:01:46.194Z,98126.19
2024-01-14T02:04:15.146Z,98119.00
2024-01-14T02:06:42.787Z,98128.94
2024-01-14T02:09:10.488Z,98113.28
2024-01-14T02:11:38.218Z,98128.13
2024-01-14T02:14:06.282Z,98132.13
2024-01-14T02:16:33.149Z,98123.00
2024-01-14T02:19:00.251Z,98112.53
2024-01-14T02:21:38.892Z,98115.81
2024-01-14T02:24:26.009Z,98127.66
2024-01-14T02:26:52.966Z,98109.31
2024-01-14T02:29:23.399Z,98119.69
2024-01-14T02:31:50.215Z,98124.34
2024-01-14T02:34:17.397Z,98109.03
2024-01-14T02:36:44.310Z,98112.03
2024-01-14T02:39:11.168Z,98106.44
2024-01-14T02:41:37.980Z,98108.53
2024-01-14T02:44:04.965Z,98102.19
2024-01-14T02:46:32.129Z,98086.03
2024-01-14T02:48:58.851Z,98100.41
2024-01-14T02:51:25.973Z,98092.38
2024-01-14T02:53:52.808Z,98095.19
2024-01-14T02:56:20.035Z,98096.81
2024-01-14T02:58:47.040Z,98099.78
2024-01-14T03:01:14.048Z,98100.84
2024-01-14T03:03:40.977Z,98097.81
2024-01-14T03:06:08.746Z,98085.81
2024-01-14T03:08:36.021Z,98085.38
2024-01-14T03:11:02.857Z,98060.25
2024-01-14T03:13:29.928Z,98080.63
2024-01-14T03:15:57.061Z,98091.66
2024-01-14T03:18:23.927Z,98087.00
2024-01-14T03:20:50.969Z,98083.47
2024-01-14T03:23:17.759Z,98091.53
2024-01-14T03:25:44.600Z,98079.47
2024-01-14T03:28:11.424Z,98085.97
2024-01-14T03:30:38.329Z,98068.03
2024-01-14T03:33:05.499Z,98073.09
2024-01-14T03:35:32.256Z,98076.06
2024-01-14T03:37:59.284Z,98063.13
2024-01-14T03:40:26.090Z,98056.97
2024-01-14T03:42:52.915Z,98053.53
2024-01-14T03:45:19.714Z,98063.38
2024-01-14T03:47:46.617Z,98062.56
2024-01-14T03:50:13.386Z,98067.69
2024-01-14T03:52:40.171Z,98070.19
2024-01-14T03:55:07.086Z,98063.84
2024-01-14T03:57:33.892Z,98008.63
2024-01-14T04:00:00.893Z,98051.34
2024-01-14T04:02:27.768Z,98056.19
2024-01-14T04:04:54.517Z,98051.25
2024-01-14T04:07:21.289Z,98043.69
2024-01-14T04:09:48.136Z,98052.06
2024-01-14T04:12:14.964Z,98052.13
2024-01-14T04:14:41.835Z,98025.19
2024-01-14T04:17:08.627Z,98040.44
2024-01-14T04:19:36.389Z,98047.06
2024-01-14T04:22:03.385Z,98048.75
2024-01-14T04:24:30.422Z,98029.72
2024-01-14T04:26:57.087Z,98046.13
2024-01-14T04:29:23.853Z,97974.75
2024-01-14T04:31:50.629Z,98026.19
2024-01-14T04:34:17.503Z,98016.31
2024-01-14T04:36:44.805Z,98014.97
2024-01-14T04:39:11.847Z,98036.50
2024-01-14T04:41:38.720Z,98004.09
2024-01-14T04:44:05.639Z,98011.97
2024-01-14T04:46:32.363Z,98017.75
2024-01-14T04:48:59.686Z,98028.13
2024-01-14T04:51:26.689Z,98028.97
2024-01-14T04:53:53.489Z,98026.38
2024-01-14T04:56:20.375Z,98026.47
2024-01-14T04:58:47.127Z,98034.34
2024-01-14T05:01:13.898Z,98034.50
2024-01-14T05:03:40.812Z,98035.41
2024-01-14T05:06:08.029Z,98016.00
2024-01-14T05:08:35.007Z,97993.97
2024-01-14T05:11:01.781Z,98013.56
2024-01-14T05:13:28.613Z,98031.06
2024-01-14T05:15:55.563Z,98008.09
2024-01-14T05:18:22.472Z,98030.28
2024-01-14T05:20:49.396Z,98015.50
2024-01-14T05:23:16.177Z,98022.28
2024-01-14T05:25:43.203Z,98018.91
2024-01-14T05:28:09.985Z,98006.09
2024-01-14T05:30:36.873Z,98011.16
2024-01-14T05:33:04.030Z,98019.00
2024-01-14T05:35:31.401Z,98025.47
2024-01-14T05:37:58.300Z,98008.34
2024-01-14T05:40:25.152Z,97999.41
2024-01-14T05:42:53.129Z,98007.69
2024-01-14T05:45:20.027Z,98003.25
2024-01-14T05:47:46.958Z,98008.38
2024-01-14T05:52:40.808Z,97997.50
2024-01-14T05:55:09.436Z,98000.75
2024-01-14T05:57:36.322Z,97992.94
2024-01-14T06:00:04.033Z,98005.47
2024-01-14T06:02:33.500Z,98003.88
2024-01-14T06:05:00.492Z,98020.78
2024-01-14T06:07:27.459Z,98014.72
2024-01-14T06:09:54.620Z,98003.06
2024-01-14T06:12:21.280Z,97992.66
2024-01-14T06:14:48.285Z,97996.22
2024-01-14T06:17:15.090Z,98006.97
2024-01-14T06:19:42.813Z,97993.25
2024-01-14T06:22:09.642Z,98004.81
2024-01-14T06:24:36.483Z,98001.28
2024-01-14T06:27:03.938Z,98011.75
2024-01-14T06:29:30.825Z,98009.31
2024-01-14T06:31:59.610Z,98005.81
2024-01-14T06:34:27.095Z,98012.75
2024-01-14T06:36:53.894Z,98004.16
2024-01-14T06:39:20.725Z,98013.78
2024-01-14T06:41:49.353Z,98028.53
2024-01-14T06:44:17.440Z,98022.47
2024-01-14T06:46:45.156Z,98033.13
2024-01-14T06:49:12.542Z,98021.81
2024-01-14T06:51:44.216Z,98019.25
2024-01-14T06:54:11.074Z,98021.28
2024-01-14T06:56:48.298Z,98029.00
2024-01-14T06:59:19.295Z,98023.81
2024-01-14T07:01:47.222Z,98013.66
2024-01-14T07:04:14.677Z,98018.78
2024-01-14T07:06:41.909Z,98011.72
2024-01-14T07:09:12.029Z,98036.94
2024-01-14T07:11:39.672Z,98023.72
2024-01-14T07:14:06.456Z,98012.81
2024-01-14T07:16:33.760Z,98014.81
2024-01-14T07:19:00.944Z,98025.88
2024-01-14T07:21:27.888Z,98025.50
2024-01-14T07:23:54.794Z,98028.53
2024-01-14T07:26:23.761Z,98028.25
2024-01-14T07:28:54.093Z,98009.50
2024-01-14T07:31:24.308Z,98028.47
2024-01-14T07:33:52.668Z,98029.28
2024-01-14T07:36:20.409Z,98028.97
2024-01-14T07:38:47.789Z,98034.09
2024-01-14T07:41:14.890Z,98029.50
2024-01-14T07:43:42.463Z,98030.91
2024-01-14T07:46:09.758Z,98029.50
2024-01-14T07:48:37.308Z,98043.56
2024-01-14T07:51:04.781Z,98043.47
2024-01-14T07:53:31.630Z,98041.56
2024-01-14T07:55:58.609Z,98045.94
2024-01-14T07:58:26.128Z,98043.03
2024-01-14T08:01:01.164Z,98037.06
2024-01-14T08:03:30.967Z,98023.78
2024-01-14T08:05:58.218Z,98037.16
2024-01-14T08:08:25.371Z,98009.59
2024-01-14T08:10:53.385Z,98042.25
2024-01-14T08:13:20.927Z,98043.47
2024-01-14T08:15:57.177Z,98031.97
2024-01-14T08:18:29.411Z,98038.22
2024-01-14T08:20:56.531Z,98032.09
2024-01-14T08:23:23.416Z,98042.06
2024-01-14T08:25:50.153Z,98023.09
2024-01-14T08:28:16.958Z,98023.09
2024-01-14T08:30:43.829Z,98030.63
2024-01-14T08:33:10.948Z,98025.22
2024-01-14T08:35:37.706Z,98040.53
2024-01-14T08:38:05.039Z,98038.09
2024-01-14T08:40:31.917Z,98049.56
2024-01-14T08:42:58.704Z,98033.44
2024-01-14T08:45:25.646Z,98043.78
2024-01-14T08:47:52.774Z,98046.56
2024-01-14T08:50:19.882Z,98059.53
2024-01-14T08:52:46.697Z,98041.47
2024-01-14T08:55:14.677Z,98043.22
2024-01-14T08:57:42.610Z,98040.28
2024-01-14T09:00:16.453Z,98039.34
2024-01-14T09:02:43.282Z,98031.78
2024-01-14T09:05:10.592Z,98063.09
2024-01-14T09:07:37.826Z,98048.84
2024-01-14T09:10:06.308Z,98059.50
2024-01-14T09:12:33.300Z,98062.94
2024-01-14T09:15:00.315Z,98050.25
2024-01-14T09:17:27.388Z,98047.22
2024-01-14T09:19:54.625Z,98049.16
2024-01-14T09:22:21.579Z,98055.28
2024-01-14T09:24:48.322Z,98045.34
2024-01-14T09:27:16.046Z,98052.22
2024-01-14T09:29:42.860Z,98037.84
2024-01-14T09:32:09.992Z,98033.75
2024-01-14T09:34:36.729Z,98049.25
2024-01-14T09:37:04.003Z,98044.59
2024-01-14T09:39:30.693Z,98041.94
2024-01-14T09:42:16.148Z,98035.13
2024-01-14T09:44:43.231Z,98032.03
2024-01-14T09:47:11.936Z,98029.16
2024-01-14T09:49:39.083Z,98023.56
2024-01-14T09:52:06.045Z,98025.00
2024-01-14T09:54:34.343Z,98014.91
2024-01-14T09:57:12.458Z,98021.13
2024-01-14T09:59:43.942Z,98016.94
2024-01-14T10:02:14.106Z,98017.09
2024-01-14T10:04:42.124Z,98011.81
2024-01-14T10:07:09.200Z,98010.56
2024-01-14T10:09:37.259Z,98004.56
2024-01-14T10:12:04.243Z,97998.69
2024-01-14T10:14:31.030Z,98003.94
2024-01-14T10:17:01.077Z,97998.69
2024-01-14T10:19:27.989Z,97988.13
2024-01-14T10:22:13.939Z,97994.41
2024-01-14T10:24:43.854Z,97987.59
2024-01-14T10:27:12.067Z,97997.41
2024-01-14T10:29:38.839Z,97985.91
2024-01-14T10:32:05.732Z,97978.94
2024-01-14T10:34:32.830Z,97973.97
2024-01-14T10:37:05.217Z,97966.88
2024-01-14T10:39:33.280Z,97960.81
2024-01-14T10:42:03.611Z,97967.03
2024-01-14T10:44:32.145Z,97951.94
2024-01-14T10:47:05.365Z,97942.13
2024-01-14T10:49:36.808Z,97931.22
2024-01-14T10:52:14.244Z,97932.59
2024-01-14T10:54:51.366Z,97921.34
2024-01-14T10:57:35.618Z,97916.88
2024-01-14T11:00:10.608Z,97933.53
2024-01-14T11:02:40.182Z,97928.38
2024-01-14T11:05:08.234Z,97934.06
2024-01-14T11:07:35.962Z,97927.13
2024-01-14T11:10:17.058Z,97909.06
2024-01-14T11:12:58.508Z,97917.88
2024-01-14T11:15:26.151Z,97899.97
2024-01-14T11:18:17.629Z,97908.34
2024-01-14T11:20:59.509Z,97910.50
2024-01-14T11:23:34.882Z,97905.59
2024-01-14T11:26:02.515Z,97885.56
2024-01-14T11:28:29.761Z,97893.50
2024-01-14T11:30:57.456Z,97884.81
2024-01-14T11:33:32.423Z,97861.06
2024-01-14T11:36:01.908Z,97885.44
2024-01-14T11:38:36.484Z,97871.97
2024-01-14T11:41:29.661Z,97875.19
2024-01-14T11:44:04.475Z,97870.56
2024-01-14T11:46:47.658Z,97870.84
2024-01-14T11:49:25.305Z,97853.22
2024-01-14T11:51:55.504Z,97863.91
2024-01-14T11:54:24.609Z,97870.09
2024-01-14T11:56:55.033Z,97859.19
2024-01-14T11:59:34.430Z,97854.72
2024-01-14T12:02:17.395Z,97845.47
2024-01-14T12:04:51.841Z,97845.22
2024-01-14T12:07:24.935Z,97848.09
2024-01-14T12:10:00.964Z,97840.34
2024-01-14T12:12:28.659Z,97845.44
2024-01-14T12:14:55.876Z,97837.44
2024-01-14T12:17:23.110Z,97834.56
2024-01-14T12:20:00.070Z,97835.00
2024-01-14T12:22:27.105Z,97833.13
2024-01-14T12:24:54.188Z,97828.53
2024-01-14T12:27:21.470Z,97818.72
2024-01-14T12:29:48.161Z,97834.59
2024-01-14T12:32:15.153Z,97815.03
2024-01-14T12:34:42.308Z,97818.09
2024-01-14T12:37:13.040Z,97818.00
2024-01-14T12:39:40.553Z,97818.69
2024-01-14T12:42:07.548Z,97812.41
2024-01-14T12:44:43.243Z,97813.38
2024-01-14T12:47:10.400Z,97812.88
2024-01-14T12:49:38.852Z,97798.59
2024-01-14T12:52:07.650Z,97795.56
2024-01-14T12:54:35.091Z,97798.13
2024-01-14T12:57:03.139Z,97797.50
2024-01-14T12:59:32.353Z,97797.94
2024-01-14T13:02:00.323Z,97789.22
2024-01-14T13:04:28.808Z,97784.66
2024-01-14T13:06:58.992Z,97788.44
2024-01-14T13:09:27.373Z,97777.56
2024-01-14T13:11:54.292Z,97774.41
2024-01-14T13:14:21.182Z,97777.56
2024-01-14T13:16:53.859Z,97776.53
2024-01-14T13:19:22.274Z,97772.84
2024-01-14T13:21:49.941Z,97774.78
2024-01-14T13:24:17.018Z,97778.44
2024-01-14T13:26:44.047Z,97775.84
2024-01-14T13:29:12.058Z,97772.19
2024-01-14T13:31:40.940Z,97722.47
2024-01-14T13:34:09.344Z,97761.69
2024-01-14T13:36:36.759Z,97773.88
2024-01-14T13:39:05.879Z,97760.22
2024-01-14T13:41:33.766Z,97772.13
2024-01-14T13:44:12.518Z,97764.00
2024-01-14T13:46:45.512Z,97759.19
2024-01-14T13:49:12.891Z,97757.22
2024-01-14T13:51:41.684Z,97757.00
2024-01-14T13:54:13.382Z,97755.22
2024-01-14T13:56:42.575Z,97763.31
2024-01-14T13:59:10.537Z,97768.81
2024-01-14T14:01:39.183Z,97770.13
2024-01-14T14:04:06.823Z,97765.25
2024-01-14T14:06:37.522Z,97765.44
2024-01-14T14:09:07.934Z,97751.94
2024-01-14T14:11:35.518Z,97761.16
2024-01-14T14:14:02.503Z,97765.66
2024-01-14T14:16:39.124Z,97744.03
2024-01-14T14:19:09.925Z,97767.28
2024-01-14T14:21:50.756Z,97765.38
2024-01-14T14:24:24.646Z,97753.06
2024-01-14T14:26:51.397Z,97757.16
2024-01-14T14:29:21.038Z,97756.38
2024-01-14T14:31:50.788Z,97752.06
2024-01-14T14:34:21.675Z,97748.38
2024-01-14T14:36:49.887Z,97744.72
2024-01-14T14:39:17.565Z,97739.41
2024-01-14T14:41:44.464Z,97737.75
2024-01-14T14:44:11.939Z,97744.72
2024-01-14T14:46:40.631Z,97733.50
2024-01-14T14:49:07.822Z,97747.50
2024-01-14T14:51:39.399Z,97740.31
2024-01-14T14:54:12.453Z,97732.19
2024-01-14T14:56:40.564Z,97735.53
2024-01-14T14:59:07.702Z,97731.19
2024-01-14T15:01:42.215Z,97734.16
2024-01-14T15:04:13.236Z,97739.31
2024-01-14T15:06:41.790Z,97734.47
2024-01-14T15:09:09.635Z,97729.22
2024-01-14T15:11:40.001Z,97738.69
2024-01-14T15:14:08.268Z,97725.56
2024-01-14T15:16:35.584Z,97713.25
2024-01-14T15:19:02.856Z,97717.00
2024-01-14T15:21:30.852Z,97721.25
2024-01-14T15:23:57.792Z,97711.66
2024-01-14T15:26:24.713Z,97711.47
2024-01-14T15:28:51.540Z,97708.28
2024-01-14T15:31:20.861Z,97723.28
2024-01-14T15:33:48.210Z,97722.59
2024-01-14T15:36:15.492Z,97721.44
2024-01-14T15:38:42.622Z,97726.63
2024-01-14T15:41:09.458Z,97727.94
2024-01-14T15:43:36.496Z,97720.94
2024-01-14T15:46:03.932Z,97713.38
2024-01-14T15:48:31.322Z,97710.44
2024-01-14T15:51:04.608Z,97710.19
2024-01-14T15:53:36.361Z,97698.16
2024-01-14T15:56:07.149Z,97687.94
2024-01-14T15:58:39.368Z,97679.22
2024-01-14T16:01:10.676Z,97691.03
2024-01-14T16:03:40.562Z,97692.38
2024-01-14T16:06:09.212Z,97671.34
2024-01-14T16:08:36.760Z,97688.69
2024-01-14T16:11:06.586Z,97688.56
2024-01-14T16:13:38.147Z,97689.00
2024-01-14T16:16:06.592Z,97691.03
2024-01-14T16:18:34.696Z,97675.03
2024-01-14T16:21:05.437Z,97670.59
2024-01-14T16:23:35.198Z,97664.34
2024-01-14T16:26:03.253Z,97662.41
2024-01-14T16:28:30.466Z,97651.09
2024-01-14T16:31:06.042Z,97655.47
2024-01-14T16:33:39.638Z,97675.72
2024-01-14T16:36:07.359Z,97682.69
2024-01-14T16:38:34.599Z,97679.84
2024-01-14T16:41:04.943Z,97673.06
2024-01-14T16:43:33.738Z,97647.06
2024-01-14T16:46:00.787Z,97666.03
2024-01-14T16:48:28.041Z,97685.84
2024-01-14T16:51:05.864Z,97680.81
2024-01-14T16:53:36.781Z,97670.41
2024-01-14T16:56:05.233Z,97663.88
2024-01-14T16:58:32.608Z,97655.31
2024-01-14T17:01:12.349Z,97653.38
2024-01-14T17:03:44.742Z,97658.50
2024-01-14T17:06:15.461Z,97643.94
2024-01-14T17:08:48.029Z,97671.75
2024-01-14T17:11:16.596Z,97671.97
2024-01-14T17:13:43.735Z,97651.50
2024-01-14T17:16:18.814Z,97651.56
2024-01-14T17:18:45.939Z,97633.41
2024-01-14T17:21:12.780Z,97640.22
2024-01-14T17:23:39.613Z,97638.94
2024-01-14T17:26:09.513Z,97631.94
2024-01-14T17:28:42.628Z,97639.88
2024-01-14T17:31:14.733Z,97644.34
2024-01-14T17:33:43.527Z,97629.84
2024-01-14T17:36:12.059Z,97639.59
2024-01-14T17:38:39.703Z,97647.34
2024-01-14T17:41:06.714Z,97642.56
2024-01-14T17:43:33.540Z,97601.13
2024-01-14T17:46:07.130Z,97639.78
2024-01-14T17:48:40.260Z,97631.94
2024-01-14T17:51:09.353Z,97633.00
2024-01-14T17:53:37.168Z,97631.88
2024-01-14T17:56:04.818Z,97633.72
2024-01-14T17:58:31.711Z,97625.00
2024-01-14T18:00:59.438Z,97609.56
2024-01-14T18:03:26.464Z,97615.13
2024-01-14T18:05:53.606Z,97612.13
2024-01-14T18:08:20.798Z,97618.13
2024-01-14T18:10:50.178Z,97617.31
2024-01-14T18:13:17.508Z,97613.81
2024-01-14T18:15:45.297Z,97612.25
2024-01-14T18:18:13.654Z,97616.53
2024-01-14T18:20:41.362Z,97609.63
2024-01-14T18:23:12.832Z,97614.19
2024-01-14T18:25:45.666Z,97612.09
2024-01-14T18:28:14.176Z,97604.53
2024-01-14T18:30:41.568Z,97611.69
2024-01-14T18:33:11.830Z,97594.22
2024-01-14T18:35:45.552Z,97607.56
2024-01-14T18:38:14.892Z,97603.94
2024-01-14T18:40:41.915Z,97617.28
2024-01-14T18:43:12.128Z,97606.78
2024-01-14T18:45:39.614Z,97617.28
2024-01-14T18:48:07.604Z,97603.59
2024-01-14T18:50:35.645Z,97605.72
2024-01-14T18:53:03.769Z,97607.97
2024-01-14T18:55:30.576Z,97604.28
2024-01-14T18:57:58.428Z,97580.25
2024-01-14T19:02:52.016Z,97541.00
2024-01-14T19:05:19.029Z,97578.22
2024-01-14T19:07:45.781Z,97562.84
2024-01-14T19:10:12.595Z,97586.47
2024-01-14T19:12:39.526Z,97571.69
2024-01-14T19:15:07.045Z,97571.47
2024-01-14T19:17:34.528Z,97562.13
2024-01-14T19:20:01.989Z,97569.78
2024-01-14T19:22:29.106Z,97570.78
2024-01-14T19:24:56.025Z,97576.31
2024-01-14T19:27:23.622Z,97557.91
2024-01-14T19:29:53.133Z,97560.34
2024-01-14T19:32:20.384Z,97556.22
2024-01-14T19:34:47.394Z,97552.75
2024-01-14T19:37:14.298Z,97555.50
2024-01-14T19:39:41.646Z,97545.09
2024-01-14T19:42:10.024Z,97547.16
2024-01-14T19:44:37.204Z,97544.97
2024-01-14T19:47:04.044Z,97544.81
2024-01-14T19:49:31.006Z,97542.59
2024-01-14T19:51:58.080Z,97533.00
2024-01-14T19:54:27.866Z,97531.44
2024-01-14T19:56:54.834Z,97521.78
2024-01-14T19:59:22.364Z,97526.66
2024-01-14T20:01:50.141Z,97516.47
2024-01-14T20:04:17.410Z,97520.59
2024-01-14T20:06:49.878Z,97520.03
2024-01-14T20:09:23.251Z,97519.19
2024-01-14T20:11:53.272Z,97516.03
2024-01-14T20:14:20.624Z,97499.91
2024-01-14T20:16:47.469Z,97505.00
2024-01-14T20:19:14.638Z,97501.84
2024-01-14T20:21:41.927Z,97484.59
2024-01-14T20:24:12.938Z,97491.81
2024-01-14T20:26:40.286Z,97478.06
2024-01-14T20:29:07.013Z,97492.19
2024-01-14T20:31:36.097Z,97484.44
2024-01-14T20:34:03.542Z,97482.56
2024-01-14T20:36:30.705Z,97471.84
2024-01-14T20:38:58.048Z,97478.88
2024-01-14T20:41:25.111Z,97470.91
2024-01-14T20:43:52.137Z,97471.97
2024-01-14T20:46:19.171Z,97453.00
2024-01-14T20:48:48.189Z,97469.94
2024-01-14T20:51:15.805Z,97466.97
2024-01-14T20:53:42.836Z,97463.28
2024-01-14T20:56:09.741Z,97444.16
2024-01-14T20:58:36.559Z,97445.81
2024-01-14T21:01:07.127Z,97450.34
2024-01-14T21:03:34.825Z,97439.91
2024-01-14T21:06:02.476Z,97435.94
2024-01-14T21:08:29.649Z,97440.13
2024-01-14T21:10:56.427Z,97424.81
2024-01-14T21:13:23.887Z,97417.53
2024-01-14T21:15:52.904Z,97415.91
2024-01-14T21:18:23.705Z,97424.06
2024-01-14T21:20:51.209Z,97415.28
2024-01-14T21:23:19.276Z,97421.97
2024-01-14T21:25:47.124Z,97411.94
2024-01-14T21:28:14.425Z,97388.84
2024-01-14T21:30:41.624Z,97385.78
2024-01-14T21:33:08.840Z,97411.28
2024-01-14T21:35:35.616Z,97406.09
2024-01-14T21:38:02.370Z,97404.84
2024-01-14T21:40:29.184Z,97399.66
2024-01-14T21:42:55.924Z,97394.34
2024-01-14T21:45:22.864Z,97395.09
2024-01-14T21:47:49.745Z,97394.44
2024-01-14T21:50:16.618Z,97390.34
2024-01-14T21:52:43.798Z,97390.59
2024-01-14T21:55:13.147Z,97397.38
2024-01-14T21:57:41.851Z,97385.13
2024-01-14T22:00:10.538Z,97384.03
2024-01-14T22:02:37.813Z,97380.88
2024-01-14T22:05:05.192Z,97380.03
2024-01-14T22:07:32.128Z,97357.22
2024-01-14T22:09:58.893Z,97374.44
2024-01-14T22:12:26.133Z,97363.16
2024-01-14T22:14:52.960Z,97366.38
2024-01-14T22:17:19.732Z,97360.03
2024-01-14T22:19:46.779Z,97349.28
2024-01-14T22:22:13.572Z,97345.28
2024-01-14T22:24:43.593Z,97339.22
2024-01-14T22:27:10.539Z,97352.41
2024-01-14T22:29:37.324Z,97348.13
2024-01-14T22:32:04.320Z,97341.72
2024-01-14T22:34:31.202Z,97334.72
2024-01-14T22:36:58.028Z,97320.72
2024-01-14T22:39:24.910Z,97321.47
2024-01-14T22:41:51.707Z,97314.03
2024-01-14T22:44:18.466Z,97303.16
2024-01-14T22:46:45.257Z,97311.31
2024-01-14T22:49:12.218Z,97323.84
2024-01-14T22:51:43.938Z,97311.81
2024-01-14T22:54:12.550Z,97300.84
2024-01-14T22:56:39.631Z,97303.81
2024-01-14T22:59:06.781Z,97297.41
2024-01-14T23:01:33.474Z,97291.22
2024-01-14T23:04:01.240Z,97270.31
2024-01-14T23:06:28.178Z,97275.34
2024-01-14T23:08:55.021Z,97256.13
2024-01-14T23:11:21.996Z,97279.94
2024-01-14T23:13:48.753Z,97266.56
2024-01-14T23:16:15.590Z,97257.56
2024-01-14T23:18:42.559Z,97278.59
2024-01-14T23:21:09.398Z,97261.59
2024-01-14T23:23:36.175Z,97263.63
2024-01-14T23:26:02.981Z,97261.69
2024-01-14T23:28:29.775Z,97265.91
2024-01-14T23:30:56.716Z,97252.38
2024-01-14T23:33:23.681Z,97250.28
2024-01-14T23:35:50.502Z,97235.78
2024-01-14T23:38:17.234Z,97186.94
2024-01-14T23:40:43.954Z,97234.47
2024-01-14T23:43:10.746Z,97230.28
2024-01-14T23:45:39.162Z,97221.75
2024-01-14T23:48:07.032Z,97234.75
2024-01-14T23:50:33.866Z,97228.53
2024-01-14T23:53:01.243Z,97216.81
2024-01-14T23:55:28.101Z,97219.19
2024-01-14T23:57:54.938Z,97212.91
